Time;durP1;ratioP1;P1;durP2;ratioP2;P2;SDS_P1;SDS_P2;PMS_P1;PMS_P2;Temp;Humidity;BMP_temperature;BMP_pressure;BME280_temperature;BME280_humidity;BME280_pressure;Samples;Min_cycle;Max_cycle;Signal;HPM_P1;HPM_P2
2021/12/26 00:02:06;;;;;;;19.08;3.80;;;;;;;20.41;56.22;99108.38;7310943;19;129641;-39
2021/12/26 00:04:32;;;;;;;12.38;2.65;;;;;;;20.38;56.57;99106.00;7313652;19;129105;-39
2021/12/26 00:06:58;;;;;;;9.77;2.10;;;;;;;20.40;56.66;99101.47;7309955;19;129583;-37
2021/12/26 00:09:23;;;;;;;4.93;1.63;;;;;;;20.40;56.19;99106.69;7312840;19;130296;-36
2021/12/26 00:11:49;;;;;;;16.98;2.88;;;;;;;20.43;56.70;99106.41;7310646;19;158301;-39
2021/12/26 00:14:14;;;;;;;11.80;2.67;;;;;;;20.42;56.53;99104.78;7312177;19;129893;-38
2021/12/26 00:16:39;;;;;;;18.13;3.50;;;;;;;20.38;56.74;99106.00;7310050;19;139810;-39
2021/12/26 00:19:04;;;;;;;16.13;3.40;;;;;;;20.42;57.24;99099.56;7311093;19;134076;-37
2021/12/26 00:21:30;;;;;;;13.93;2.77;;;;;;;20.42;56.28;99100.38;7310882;19;158745;-40
2021/12/26 00:23:57;;;;;;;22.50;4.63;;;;;;;20.41;56.60;99098.72;7311431;19;144076;-39
2021/12/26 00:26:22;;;;;;;12.90;2.83;;;;;;;20.42;56.27;99089.09;7311027;19;129315;-39
2021/12/26 00:28:48;;;;;;;18.05;3.15;;;;;;;20.40;56.79;99089.25;7306703;19;158749;-39
2021/12/26 00:31:16;;;;;;;17.85;3.67;;;;;;;20.41;56.13;99082.25;7308890;19;158520;-37
2021/12/26 00:33:42;;;;;;;17.73;3.30;;;;;;;20.40;56.15;99083.19;7310825;19;129369;-38
2021/12/26 00:36:07;;;;;;;17.20;3.83;;;;;;;20.42;56.73;99081.28;7309653;19;128995;-38
2021/12/26 00:38:32;;;;;;;14.95;3.17;;;;;;;20.40;56.48;99080.59;7303723;19;158777;-38
2021/12/26 00:40:58;;;;;;;18.30;3.25;;;;;;;20.32;56.44;99064.81;7310340;19;129213;-37
2021/12/26 00:43:23;;;;;;;43.88;9.35;;;;;;;20.42;56.28;99076.06;7306163;19;130049;-38
2021/12/26 00:45:49;;;;;;;18.30;3.40;;;;;;;20.42;56.59;99083.88;7307343;19;154036;-39
2021/12/26 00:48:14;;;;;;;15.07;3.50;;;;;;;20.43;56.77;99090.75;7307609;19;129661;-36
2021/12/26 00:50:41;;;;;;;11.10;2.80;;;;;;;20.42;56.36;99089.09;7305537;19;130716;-38
2021/12/26 00:53:06;;;;;;;18.02;4.07;;;;;;;20.38;56.91;99090.34;7309268;19;129512;-36
2021/12/26 00:55:32;;;;;;;13.98;3.22;;;;;;;20.38;57.03;99092.97;7306195;19;129599;-39
2021/12/26 00:57:57;;;;;;;16.45;3.00;;;;;;;20.38;56.22;99098.19;7308523;19;129814;-37
2021/12/26 01:00:30;;;;;;;13.95;3.30;;;;;;;20.37;57.13;99091.31;7307359;19;129522;-39
2021/12/26 01:03:00;;;;;;;16.02;3.00;;;;;;;20.40;57.34;99094.47;7310185;19;129120;-38
2021/12/26 01:05:26;;;;;;;12.13;2.88;;;;;;;20.45;56.70;99088.81;7309169;19;130726;-39
2021/12/26 01:08:03;;;;;;;20.97;4.27;;;;;;;20.40;57.05;99096.25;7307181;19;131180;-38
2021/12/26 01:10:45;;;;;;;12.27;2.65;;;;;;;20.33;56.68;99096.00;7310347;19;130559;-39
2021/12/26 01:13:18;;;;;;;18.13;3.83;;;;;;;20.40;57.19;99096.25;7308746;19;129785;-41
2021/12/26 01:15:45;;;;;;;18.67;3.85;;;;;;;20.34;56.41;99092.44;7308549;19;129059;-39
2021/12/26 01:18:11;;;;;;;15.30;3.53;;;;;;;20.35;56.95;99088.84;7306931;19;129403;-38
2021/12/26 01:23:05;;;;;;;19.23;3.53;;;;;;;20.36;56.90;99090.50;7309141;19;129406;-39
2021/12/26 01:25:30;;;;;;;10.13;2.95;;;;;;;20.36;56.45;99089.69;7307484;19;129811;-39
2021/12/26 01:27:55;;;;;;;16.75;3.42;;;;;;;20.25;57.47;99076.81;7306325;19;129476;-38
2021/12/26 01:30:20;;;;;;;12.83;2.97;;;;;;;20.38;56.85;99087.75;7307532;19;158785;-40
2021/12/26 01:32:46;;;;;;;13.10;2.92;;;;;;;20.41;57.08;99087.47;7303403;19;154476;-37
2021/12/26 01:35:11;;;;;;;28.83;5.67;;;;;;;20.39;56.59;99084.19;7306730;19;154301;-35
2021/12/26 01:37:36;;;;;;;13.45;2.92;;;;;;;20.36;56.30;99087.09;7305946;19;143020;-38
2021/12/26 01:40:03;;;;;;;16.65;3.17;;;;;;;20.38;56.31;99082.50;7308433;19;131004;-37
2021/12/26 01:42:28;;;;;;;12.57;2.72;;;;;;;20.37;56.45;99092.16;7312785;19;128881;-40
2021/12/26 01:44:54;;;;;;;15.75;3.17;;;;;;;20.35;56.10;99083.63;7315773;19;134753;-39
2021/12/26 01:47:19;;;;;;;7.73;2.33;;;;;;;20.34;57.05;99073.34;7311683;19;158353;-37
2021/12/26 01:49:44;;;;;;;14.77;3.00;;;;;;;20.39;56.90;99078.97;7313348;19;158621;-38
2021/12/26 01:52:09;;;;;;;20.40;3.97;;;;;;;20.27;56.31;99072.25;7315188;19;129433;-37
2021/12/26 01:54:59;;;;;;;17.38;3.50;;;;;;;20.35;56.65;99080.19;7309927;19;129442;-37
2021/12/26 01:57:24;;;;;;;14.15;3.17;;;;;;;20.35;56.50;99078.41;7309899;19;131126;-38
2021/12/26 01:59:49;;;;;;;17.65;3.15;;;;;;;20.40;56.84;99085.81;7312934;19;159094;-38
2021/12/26 02:02:15;;;;;;;15.27;3.35;;;;;;;20.34;56.75;99086.41;7306847;19;154546;-38
2021/12/26 02:04:42;;;;;;;15.18;3.72;;;;;;;20.36;56.26;99079.25;7314366;19;130184;-39
2021/12/26 02:07:10;;;;;;;12.65;3.38;;;;;;;20.35;56.59;99077.59;7313300;19;130218;-38
2021/12/26 02:09:37;;;;;;;13.02;3.03;;;;;;;20.35;56.69;99086.25;7314652;19;129818;-39
2021/12/26 02:12:03;;;;;;;13.40;3.27;;;;;;;20.29;56.70;99068.56;7315419;19;129454;-39
2021/12/26 02:14:28;;;;;;;18.87;3.40;;;;;;;20.36;56.32;99079.25;7312643;19;129034;-39
2021/12/26 02:16:54;;;;;;;14.10;2.92;;;;;;;20.36;56.68;99074.03;7313227;19;130144;-38
2021/12/26 02:19:19;;;;;;;18.77;3.45;;;;;;;20.40;56.74;99077.97;7314196;19;130324;-39
2021/12/26 02:24:44;;;;;;;12.02;2.65;;;;;;;20.35;56.36;99074.97;7314570;19;129816;-37
2021/12/26 02:29:53;;;;;;;11.77;2.95;;;;;;;20.31;56.58;99061.38;7314700;19;129443;-38
2021/12/26 02:32:18;;;;;;;19.00;3.70;;;;;;;20.34;56.40;99066.34;7312220;19;154731;-40
2021/12/26 02:34:43;;;;;;;18.10;4.23;;;;;;;20.29;56.85;99062.50;7313065;19;151614;-40
2021/12/26 02:37:08;;;;;;;8.50;2.60;;;;;;;20.37;56.74;99067.81;7311579;19;158197;-38
2021/12/26 02:39:35;;;;;;;14.30;3.40;;;;;;;20.33;56.60;99067.28;7312744;19;145835;-36
2021/12/26 02:42:00;;;;;;;;;;;;;;;20.32;56.95;99067.44;7315316;19;129834;-38
2021/12/26 02:44:26;;;;;;;11.83;2.87;;;;;;;20.35;56.40;99072.38;7312251;19;148906;-37
2021/12/26 02:46:51;;;;;;;16.77;3.33;;;;;;;20.38;56.16;99066.84;7313099;19;128964;-39
2021/12/26 02:49:25;;;;;;;16.13;3.35;;;;;;;20.33;57.37;99069.91;7313906;19;130520;-40
2021/12/26 02:51:51;;;;;;;17.10;3.45;;;;;;;20.33;56.42;99066.47;7313530;19;129943;-39
2021/12/26 02:54:17;;;;;;;14.73;3.15;;;;;;;20.23;56.21;99052.66;7310107;19;128999;-38
2021/12/26 02:56:42;;;;;;;16.48;3.75;;;;;;;20.25;57.27;99045.47;7312238;19;129702;-38
2021/12/26 02:59:07;;;;;;;10.07;2.85;;;;;;;20.32;56.38;99067.44;7313856;19;130040;-38
2021/12/26 03:01:33;;;;;;;20.77;3.92;;;;;;;20.33;56.78;99058.63;7300769;19;154501;-41
2021/12/26 03:03:59;;;;;;;22.58;4.78;;;;;;;20.31;56.83;99065.81;7312514;19;129634;-40
2021/12/26 03:06:33;;;;;;;17.83;3.45;;;;;;;20.31;56.13;99065.81;7312125;19;130130;-40
2021/12/26 03:09:00;;;;;;;21.08;4.13;;;;;;;20.32;57.00;99062.22;7313059;19;131446;-40
2021/12/26 03:11:25;;;;;;;;;;;;;;;20.32;56.20;99063.06;7309528;19;129669;-39
2021/12/26 03:13:51;;;;;;;29.60;5.63;;;;;;;20.26;56.21;99052.38;7312444;19;129856;-40
2021/12/26 03:16:16;;;;;;;9.57;2.63;;;;;;;20.30;56.67;99069.38;7308383;19;143274;-37
2021/12/26 03:18:41;;;;;;;17.23;3.53;;;;;;;20.31;56.36;99071.03;7308764;19;158424;-41
2021/12/26 03:21:07;;;;;;;11.32;2.65;;;;;;;20.20;56.85;99048.53;7313825;19;129401;-39
2021/12/26 03:23:32;;;;;;;18.92;3.55;;;;;;;20.32;56.16;99063.06;7313634;19;130146;-41
2021/12/26 03:26:00;;;;;;;9.55;2.63;;;;;;;20.31;56.35;99063.19;7311551;19;133124;-36
2021/12/26 03:28:27;;;;;;;15.57;3.40;;;;;;;20.29;56.18;99068.56;7309728;19;131414;-40
2021/12/26 03:30:52;;;;;;;14.98;3.25;;;;;;;20.33;56.08;99071.69;7311416;19;129455;-41
2021/12/26 03:33:18;;;;;;;19.35;3.90;;;;;;;20.24;56.61;99059.50;7313196;19;129577;-37
2021/12/26 03:35:47;;;;;;;15.53;3.67;;;;;;;20.32;56.78;99063.06;7312595;19;130206;-39
2021/12/26 03:38:14;;;;;;;18.50;3.70;;;;;;;20.36;56.44;99068.81;7309857;19;141962;-39
2021/12/26 03:40:40;;;;;;;12.35;3.15;;;;;;;20.33;56.90;99066.47;7313294;19;129306;-37
2021/12/26 03:43:06;;;;;;;16.03;3.50;;;;;;;20.34;55.98;99075.97;7312524;19;129825;-38
2021/12/26 03:45:32;;;;;;;13.23;3.08;;;;;;;20.25;56.67;99053.31;7312434;19;129896;-38
2021/12/26 03:47:58;;;;;;;11.20;2.63;;;;;;;20.34;56.85;99060.28;7310161;19;130869;-38
2021/12/26 03:50:24;;;;;;;8.77;2.25;;;;;;;20.32;56.33;99064.81;7311530;19;129169;-38
2021/12/26 03:52:50;;;;;;;22.33;4.17;;;;;;;20.36;56.33;99063.59;7311363;19;130646;-38
2021/12/26 03:55:18;;;;;;;17.23;3.20;;;;;;;20.30;56.50;99066.75;7313022;19;130191;-38
2021/12/26 03:57:45;;;;;;;11.90;2.88;;;;;;;20.28;56.08;99061.69;7309583;19;129773;-40
2021/12/26 04:00:14;;;;;;;11.18;2.65;;;;;;;20.28;57.22;99066.09;7311935;19;129113;-39
2021/12/26 04:02:39;;;;;;;8.38;2.38;;;;;;;20.27;57.13;99060.03;7309690;19;129473;-39
2021/12/26 04:05:05;;;;;;;12.27;2.63;;;;;;;20.29;56.38;99065.13;7309790;19;129517;-40
2021/12/26 04:07:30;;;;;;;15.25;2.97;;;;;;;20.29;56.50;99067.72;7309079;19;132047;-39
2021/12/26 04:09:55;;;;;;;18.73;3.57;;;;;;;20.31;56.48;99060.59;7305993;19;153897;-40
2021/12/26 04:12:21;;;;;;;10.47;2.37;;;;;;;20.28;56.85;99060.88;7310449;19;154147;-40
2021/12/26 04:14:46;;;;;;;18.02;3.47;;;;;;;20.26;56.31;99057.59;7309292;19;159141;-39
2021/12/26 04:17:11;;;;;;;16.10;3.23;;;;;;;20.30;56.30;99069.38;7303250;19;157644;-41
2021/12/26 04:19:37;;;;;;;15.67;3.40;;;;;;;20.32;56.26;99072.66;7309849;19;154777;-40
2021/12/26 04:22:03;;;;;;;11.60;2.67;;;;;;;20.31;57.23;99066.59;7310956;19;129459;-41
2021/12/26 04:24:29;;;;;;;14.57;2.77;;;;;;;20.28;56.61;99071.31;7311404;19;130875;-39
2021/12/26 04:26:55;;;;;;;18.05;3.58;;;;;;;20.31;56.70;99077.03;7302357;19;130899;-40
2021/12/26 04:29:20;;;;;;;13.25;2.88;;;;;;;20.32;56.26;99072.66;7311862;19;129412;-40
2021/12/26 04:31:45;;;;;;;13.82;3.17;;;;;;;20.31;56.55;99066.59;7310269;19;133212;-39
2021/12/26 04:34:10;;;;;;;21.83;4.28;;;;;;;20.34;56.93;99070.72;7308232;19;158449;-39
2021/12/26 04:36:36;;;;;;;19.00;3.60;;;;;;;20.26;56.72;99058.38;7308212;19;129631;-40
2021/12/26 04:39:03;;;;;;;14.90;3.60;;;;;;;20.39;56.43;99074.56;7310644;19;129469;-39
2021/12/26 04:41:28;;;;;;;15.07;3.13;;;;;;;20.40;56.39;99067.53;7310767;19;129755;-37
2021/12/26 04:43:54;;;;;;;13.25;3.22;;;;;;;20.38;56.26;99072.91;7309953;19;130141;-40
2021/12/26 04:46:19;;;;;;;16.85;3.45;;;;;;;20.44;56.16;99068.91;7309498;19;130317;-38
2021/12/26 04:48:45;;;;;;;10.48;2.45;;;;;;;20.38;56.19;99053.78;7307725;19;138587;-38
2021/12/26 04:51:11;;;;;;;15.27;3.47;;;;;;;20.42;56.15;99070.84;7309548;19;129875;-40
2021/12/26 04:53:38;;;;;;;56.40;10.60;;;;;;;20.40;56.06;99070.16;7303273;19;129499;-40
2021/12/26 04:56:04;;;;;;;9.32;2.60;;;;;;;20.40;56.45;99063.16;7309163;19;129476;-41
2021/12/26 04:58:30;;;;;;;13.53;2.80;;;;;;;20.36;56.20;99061.78;7307765;19;128959;-40
2021/12/26 05:00:55;;;;;;;15.40;3.33;;;;;;;20.35;56.10;99061.94;7311330;19;129067;-40
2021/12/26 05:03:21;;;;;;;10.70;2.67;;;;;;;20.23;56.22;99044.81;7309062;19;130111;-40
2021/12/26 05:05:46;;;;;;;15.95;3.30;;;;;;;20.34;56.78;99065.50;7309209;19;130439;-40
2021/12/26 05:08:12;;;;;;;17.33;3.17;;;;;;;20.31;56.63;99064.00;7307217;19;154987;-40
2021/12/26 05:10:38;;;;;;;11.98;2.85;;;;;;;20.29;56.73;99062.50;7310504;19;130341;-40
2021/12/26 05:13:04;;;;;;;12.13;3.08;;;;;;;20.35;56.22;99067.16;7310166;19;129612;-39
2021/12/26 05:15:30;;;;;;;20.05;4.35;;;;;;;20.33;56.26;99069.06;7306853;19;129914;-40
2021/12/26 05:17:56;;;;;;;20.65;3.53;;;;;;;20.32;56.81;99072.66;7307747;19;130023;-40
2021/12/26 05:20:22;;;;;;;16.75;3.75;;;;;;;20.27;56.69;99080.09;7308965;19;129000;-38
2021/12/26 05:22:51;;;;;;;12.57;2.80;;;;;;;20.30;56.32;99070.19;7309440;19;130426;-40
2021/12/26 05:25:17;;;;;;;17.52;3.70;;;;;;;20.29;56.93;99065.13;7308467;19;130797;-38
2021/12/26 05:27:43;;;;;;;171.43;34.92;;;;;;;20.22;56.53;99061.44;7267878;19;131522;-38
2021/12/26 05:30:12;;;;;;;13.25;2.83;;;;;;;20.30;56.56;99079.81;7303976;19;129990;-38
2021/12/26 05:32:39;;;;;;;38.70;7.72;;;;;;;20.28;57.17;99066.09;7306971;19;129851;-39
2021/12/26 05:35:04;;;;;;;17.60;3.67;;;;;;;20.29;56.98;99068.56;7301804;19;129823;-39
2021/12/26 05:37:30;;;;;;;15.82;3.03;;;;;;;20.29;57.03;99068.56;7306479;19;129729;-39
2021/12/26 05:39:56;;;;;;;15.75;3.22;;;;;;;20.28;56.76;99068.72;7307203;19;133694;-40
2021/12/26 05:42:22;;;;;;;14.43;3.05;;;;;;;20.29;57.19;99078.16;7307191;19;130786;-39
2021/12/26 05:44:48;;;;;;;17.05;3.40;;;;;;;20.31;56.65;99081.47;7304348;19;130382;-40
2021/12/26 05:47:14;;;;;;;16.25;3.63;;;;;;;20.36;57.06;99074.03;7306841;19;129235;-40
2021/12/26 05:49:39;;;;;;;18.00;3.47;;;;;;;20.34;56.81;99076.78;7307768;19;128670;-38
2021/12/26 05:52:06;;;;;;;14.85;3.45;;;;;;;20.27;56.70;99067.88;7304006;19;130072;-39
2021/12/26 05:54:32;;;;;;;17.20;2.95;;;;;;;20.38;56.53;99077.28;7307946;19;131476;-41
2021/12/26 05:56:57;;;;;;;13.98;2.63;;;;;;;20.21;56.97;99065.03;7308566;19;129210;-39
2021/12/26 05:59:22;;;;;;;18.80;3.58;;;;;;;20.31;56.95;99069.22;7307091;19;153834;-38
2021/12/26 06:01:48;;;;;;;11.43;2.53;;;;;;;20.28;56.32;99076.53;7308540;19;130305;-40
2021/12/26 06:04:13;;;;;;;14.00;2.90;;;;;;;20.29;56.41;99067.72;7308738;19;129616;-39
2021/12/26 06:06:38;;;;;;;13.15;3.03;;;;;;;20.29;56.66;99067.72;7306412;19;129020;-40
2021/12/26 06:09:04;;;;;;;18.75;3.70;;;;;;;20.29;57.01;99059.91;7307838;19;135603;-36
2021/12/26 06:11:29;;;;;;;14.00;2.95;;;;;;;20.26;56.84;99052.38;7308956;19;131178;-39
2021/12/26 06:13:55;;;;;;;20.17;4.18;;;;;;;20.30;56.66;99059.75;7308951;19;129110;-39
2021/12/26 06:16:20;;;;;;;10.73;2.30;;;;;;;20.29;56.32;99054.69;7306963;19;129051;-40
2021/12/26 06:18:46;;;;;;;16.70;3.03;;;;;;;20.29;57.35;99067.72;7306504;19;129834;-38
2021/12/26 06:21:11;;;;;;;16.52;3.50;;;;;;;20.25;56.95;99061.16;7306465;19;141495;-40
2021/12/26 06:23:36;;;;;;;13.17;2.67;;;;;;;20.35;56.74;99064.53;7306822;19;158418;-41
2021/12/26 06:26:02;;;;;;;13.40;3.00;;;;;;;20.34;56.46;99063.72;7305951;19;154768;-41
2021/12/26 06:28:27;;;;;;;5.47;1.60;;;;;;;20.34;56.13;99055.06;7310296;19;129487;-39
2021/12/26 06:30:53;;;;;;;13.53;2.50;;;;;;;20.33;56.19;99059.47;7312437;19;159233;-40
2021/12/26 06:33:18;;;;;;;19.87;3.80;;;;;;;20.36;56.75;99058.38;7311354;19;159620;-39
2021/12/26 06:35:44;;;;;;;14.77;3.00;;;;;;;20.37;56.61;99060.00;7313340;19;154026;-39
2021/12/26 06:38:09;;;;;;;15.68;3.25;;;;;;;20.36;56.30;99063.59;7311174;19;154360;-36
2021/12/26 06:40:34;;;;;;;20.27;4.17;;;;;;;20.33;56.73;99063.84;7311377;19;162089;-40
2021/12/26 06:42:59;;;;;;;15.65;2.83;;;;;;;20.35;56.34;99061.94;7312807;19;130285;-38
2021/12/26 06:45:25;;;;;;;14.40;3.47;;;;;;;20.36;56.84;99056.56;7310896;19;154467;-37
2021/12/26 06:47:52;;;;;;;13.80;2.65;;;;;;;20.34;56.63;99065.50;7301591;19;154564;-39
2021/12/26 06:50:19;;;;;;;7.03;2.00;;;;;;;20.34;56.16;99060.28;7312204;19;130992;-39
2021/12/26 06:52:45;;;;;;;22.60;4.13;;;;;;;20.28;56.26;99063.50;7313929;19;130481;-38
2021/12/26 06:55:11;;;;;;;19.80;3.47;;;;;;;20.30;56.59;99070.19;7312877;19;129990;-39
2021/12/26 06:57:37;;;;;;;15.98;2.95;;;;;;;20.33;56.58;99056.84;7306797;19;130037;-39
2021/12/26 07:00:10;;;;;;;10.60;2.35;;;;;;;20.34;57.36;99068.97;7311127;19;129452;-38
2021/12/26 07:02:35;;;;;;;72.55;15.02;;;;;;;20.32;56.90;99073.50;7299483;19;130343;-39
2021/12/26 07:05:02;;;;;;;52.28;8.70;;;;;;;20.29;56.26;99075.56;7294514;19;155141;-40
2021/12/26 07:07:27;;;;;;;17.15;3.22;;;;;;;20.32;56.04;99075.28;7311108;19;130433;-40
2021/12/26 07:09:52;;;;;;;22.70;4.22;;;;;;;20.29;56.60;99068.56;7308998;19;159093;-40
2021/12/26 07:12:18;;;;;;;19.40;3.40;;;;;;;20.37;56.11;99080.88;7311608;19;129286;-37
2021/12/26 07:14:43;;;;;;;19.13;3.53;;;;;;;20.36;56.65;99079.25;7312785;19;129143;-39
2021/12/26 07:17:12;;;;;;;15.85;3.42;;;;;;;20.32;56.17;99081.31;7310511;19;129108;-40
2021/12/26 07:19:38;;;;;;;16.25;3.17;;;;;;;20.32;56.18;99085.72;7309210;19;129831;-40
2021/12/26 07:22:04;;;;;;;19.30;4.05;;;;;;;20.37;55.96;99091.31;7308722;19;130701;-39
2021/12/26 07:24:29;;;;;;;22.85;3.83;;;;;;;20.33;56.36;99095.19;7311728;19;130133;-41
2021/12/26 07:26:54;;;;;;;21.55;3.45;;;;;;;20.34;56.60;99091.63;7310158;19;129160;-40
2021/12/26 07:29:20;;;;;;;29.13;4.90;;;;;;;20.29;56.83;99093.84;7309016;19;158112;-40
2021/12/26 07:31:45;;;;;;;19.67;3.63;;;;;;;20.31;56.83;99097.13;7311846;19;129682;-40
2021/12/26 07:34:10;;;;;;;20.83;3.83;;;;;;;20.29;56.24;99091.22;7310920;19;153474;-40
2021/12/26 07:36:36;;;;;;;15.80;3.20;;;;;;;20.33;56.47;99092.56;7310532;19;154357;-39
2021/12/26 07:39:02;;;;;;;11.90;2.40;;;;;;;20.30;56.80;99095.47;7311888;19;130642;-40
2021/12/26 07:41:27;;;;;;;15.90;3.07;;;;;;;20.28;56.75;99087.78;7311607;19;129296;-39
2021/12/26 07:43:52;;;;;;;25.83;4.93;;;;;;;20.27;56.32;99091.38;7310540;19;155267;-40
2021/12/26 07:46:18;;;;;;;15.40;2.92;;;;;;;20.21;56.36;99075.47;7311793;19;147297;-39
2021/12/26 07:48:43;;;;;;;13.70;3.03;;;;;;;20.30;56.66;99090.25;7309262;19;130175;-37
2021/12/26 07:51:08;;;;;;;10.23;2.38;;;;;;;20.29;56.33;99096.44;7312575;19;130746;-37
2021/12/26 07:53:34;;;;;;;19.55;3.67;;;;;;;20.28;56.88;99094.81;7309579;19;154279;-40
2021/12/26 07:55:59;;;;;;;23.02;3.63;;;;;;;20.29;57.08;99101.66;7310064;19;129664;-40
2021/12/26 07:58:25;;;;;;;14.80;2.38;;;;;;;20.26;56.85;99105.38;7307614;19;159467;-39
2021/12/26 08:00:51;;;;;;;26.80;4.75;;;;;;;20.26;56.76;99099.34;7310378;19;129254;-40
2021/12/26 08:03:16;;;;;;;19.17;3.63;;;;;;;20.25;57.06;99093.28;7310876;19;129952;-38
2021/12/26 08:05:42;;;;;;;18.52;3.55;;;;;;;20.24;56.48;99090.84;7312327;19;130199;-39
2021/12/26 08:08:07;;;;;;;9.77;2.17;;;;;;;20.24;56.42;99096.06;7296758;19;147161;-39
2021/12/26 08:10:32;;;;;;;18.30;3.28;;;;;;;20.22;57.01;99092.75;7310998;19;158717;-34
2021/12/26 08:12:57;;;;;;;18.52;3.35;;;;;;;20.21;57.19;99101.56;7300727;19;141435;-39
2021/12/26 08:15:23;;;;;;;18.90;3.30;;;;;;;20.11;57.03;99074.63;7309280;19;129965;-34
2021/12/26 08:17:48;;;;;;;11.05;2.38;;;;;;;20.23;57.31;99089.19;7304287;19;158286;-32
2021/12/26 08:20:13;;;;;;;17.83;3.45;;;;;;;20.07;56.41;99068.06;7309126;19;158422;-38
2021/12/26 08:22:39;;;;;;;96.60;17.88;;;;;;;20.13;57.07;99072.72;7302055;19;129352;-44
2021/12/26 08:25:05;;;;;;;10.23;2.08;;;;;;;20.24;56.90;99090.84;7307096;19;129740;-40
2021/12/26 08:27:32;;;;;;;20.40;3.33;;;;;;;20.36;56.43;99089.69;7308635;19;131105;-33
2021/12/26 08:29:58;;;;;;;19.83;3.47;;;;;;;20.34;56.18;99092.44;7301501;19;129572;-38
2021/12/26 08:32:23;;;;;;;21.97;3.70;;;;;;;20.30;56.13;99096.31;7309389;19;128839;-33
2021/12/26 08:34:48;;;;;;;26.93;4.53;;;;;;;20.35;56.19;99090.63;7307810;19;154221;-36
2021/12/26 08:37:14;;;;;;;16.73;2.80;;;;;;;20.32;56.35;99085.72;7309022;19;131325;-36
2021/12/26 08:39:42;;;;;;;21.02;3.83;;;;;;;20.30;56.69;99096.31;7307971;19;130269;-36
2021/12/26 08:42:11;;;;;;;9.98;2.53;;;;;;;20.31;56.27;99097.13;7310479;19;129369;-32
2021/12/26 08:44:36;;;;;;;27.35;4.57;;;;;;;20.17;56.61;99093.19;7308301;19;130487;-33
2021/12/26 08:47:04;;;;;;;15.48;2.70;;;;;;;20.12;57.06;99095.38;7308639;19;129628;-36
2021/12/26 08:49:29;;;;;;;23.73;3.70;;;;;;;20.18;57.10;99091.41;7307810;19;131533;-33
2021/12/26 08:51:55;;;;;;;10.15;1.88;;;;;;;20.21;56.44;99091.13;7306999;19;129835;-38
2021/12/26 08:54:22;;;;;;;20.23;3.33;;;;;;;20.18;56.18;99092.22;7308700;19;129913;-35
2021/12/26 08:56:48;;;;;;;17.98;3.22;;;;;;;20.30;54.98;99087.63;7309328;19;129428;-34
2021/12/26 08:59:13;;;;;;;16.63;3.15;;;;;;;20.34;54.63;99096.84;7310640;19;130397;-33
2021/12/26 09:01:39;;;;;;;13.30;3.20;;;;;;;20.37;54.70;99092.16;7309892;19;129111;-38
2021/12/26 09:04:04;;;;;;;13.43;2.50;;;;;;;20.46;54.73;99093.88;7309083;19;129559;-34
2021/12/26 09:06:30;;;;;;;14.07;2.67;;;;;;;20.46;55.10;99100.91;7309406;19;129196;-34
2021/12/26 09:08:55;;;;;;;19.25;3.30;;;;;;;20.48;54.69;99088.53;7306324;19;130435;-35
2021/12/26 09:11:21;;;;;;;13.82;2.65;;;;;;;20.62;54.99;99095.88;7308482;19;147992;-35
2021/12/26 09:13:46;;;;;;;15.85;3.33;;;;;;;20.57;54.59;99105.94;7309551;19;130263;-35
2021/12/26 09:16:12;;;;;;;15.73;3.05;;;;;;;20.59;55.14;99101.41;7309350;19;130071;-40
2021/12/26 09:18:38;;;;;;;16.35;3.35;;;;;;;20.55;55.40;99094.81;7307677;19;129411;-34
2021/12/26 09:21:05;;;;;;;11.70;2.35;;;;;;;20.55;55.20;99100.03;7310840;19;129649;-38
2021/12/26 09:23:30;;;;;;;;;;;;;;;20.50;55.75;99097.88;7309758;19;130530;-36
2021/12/26 09:25:56;;;;;;;14.32;2.60;;;;;;;20.49;55.46;99100.63;7308300;19;129167;-35
2021/12/26 09:28:21;;;;;;;13.95;2.85;;;;;;;20.50;55.88;99097.03;7306423;19;129472;-35
2021/12/26 09:30:46;;;;;;;17.45;3.17;;;;;;;20.51;55.64;99098.69;7307841;19;154740;-31
2021/12/26 09:33:12;;;;;;;15.57;2.67;;;;;;;20.48;55.72;99096.34;7308181;19;154114;-34
2021/12/26 09:35:37;;;;;;;17.75;3.25;;;;;;;20.45;56.15;99091.41;7307641;19;131814;-35
2021/12/26 09:38:03;;;;;;;12.45;2.30;;;;;;;20.43;55.78;99085.50;7306334;19;159255;-35
2021/12/26 09:40:28;;;;;;;23.27;4.13;;;;;;;20.38;55.59;99077.28;7308062;19;129147;-37
2021/12/26 09:42:54;;;;;;;17.52;2.80;;;;;;;20.45;55.97;99083.59;7310277;19;129523;-33
2021/12/26 09:45:19;;;;;;;13.98;2.78;;;;;;;20.38;55.30;99069.47;7307526;19;129166;-38
2021/12/26 09:47:49;;;;;;;18.30;3.67;;;;;;;20.49;55.84;99080.53;7305146;19;129599;-33
2021/12/26 09:50:17;;;;;;;10.82;2.95;;;;;;;20.49;55.14;99079.75;7308005;19;129777;-35
2021/12/26 09:52:44;;;;;;;19.27;3.55;;;;;;;20.46;55.43;99075.59;7308710;19;128913;-35
2021/12/26 09:55:11;;;;;;;16.58;3.33;;;;;;;20.45;56.04;99078.38;7306977;19;129568;-37
2021/12/26 09:57:36;;;;;;;;;;;;;;;20.49;56.08;99079.75;7309079;19;133116;-37
2021/12/26 10:00:27;;;;;;;17.20;3.13;;;;;;;20.52;55.73;99072.44;7308185;19;129201;-31
2021/12/26 10:03:15;;;;;;;15.38;2.85;;;;;;;20.48;55.58;99065.84;7310216;19;130471;-33
2021/12/26 10:05:59;;;;;;;15.05;2.90;;;;;;;20.51;56.50;99062.94;7314034;19;129751;-37
2021/12/26 10:08:27;;;;;;;13.85;2.95;;;;;;;20.50;55.56;99060.47;7312958;19;130923;-33
2021/12/26 10:11:11;;;;;;;18.08;2.88;;;;;;;20.52;55.92;99062.00;7314457;19;129375;-34
2021/12/26 10:13:41;;;;;;;12.30;2.65;;;;;;;20.49;55.86;99057.03;7315670;19;130309;-40
2021/12/26 10:16:07;;;;;;;16.45;3.05;;;;;;;20.53;55.82;99054.97;7312923;19;135302;-33
2021/12/26 10:18:32;;;;;;;13.70;2.75;;;;;;;20.53;55.91;99060.19;7312338;19;129187;-34
2021/12/26 10:20:57;;;;;;;20.08;3.38;;;;;;;20.54;55.42;99054.00;7313649;19;130318;-40
2021/12/26 10:23:26;;;;;;;17.63;3.35;;;;;;;20.52;56.28;99053.31;7315047;19;129279;-34
2021/12/26 10:25:52;;;;;;;14.80;2.83;;;;;;;20.49;55.52;99058.84;7312653;19;129916;-34
2021/12/26 10:28:17;;;;;;;26.00;4.03;;;;;;;20.40;52.34;99049.25;7312979;19;129496;-32
2021/12/26 10:30:43;;;;;;;7.32;2.72;;;;;;;20.41;52.80;99056.94;7312921;19;129823;-29
2021/12/26 10:33:09;;;;;;;15.13;2.97;;;;;;;20.45;52.87;99062.69;7313194;19;130270;-32
2021/12/26 10:35:34;;;;;;;19.52;4.07;;;;;;;20.43;53.94;99055.00;7311562;19;129126;-37
2021/12/26 10:37:59;;;;;;;16.55;3.17;;;;;;;20.44;54.61;99056.66;7312452;19;130301;-36
2021/12/26 10:40:28;;;;;;;7.97;2.40;;;;;;;20.47;54.09;99039.88;7312906;19;154938;-35
2021/12/26 10:42:58;;;;;;;19.13;3.63;;;;;;;20.38;54.35;99040.75;7314315;19;129387;-33
2021/12/26 10:45:27;;;;;;;13.18;2.95;;;;;;;20.44;54.80;99035.75;7311860;19;129757;-35
2021/12/26 10:47:55;;;;;;;24.17;4.60;;;;;;;20.42;54.82;99036.88;7311823;19;130974;-35
2021/12/26 10:50:23;;;;;;;9.90;2.60;;;;;;;20.43;54.47;99044.56;7313767;19;129531;-33
2021/12/26 10:52:55;;;;;;;22.50;4.05;;;;;;;20.38;54.94;99045.97;7313624;19;130068;-34
2021/12/26 10:55:33;;;;;;;15.60;3.25;;;;;;;20.37;55.28;99044.34;7313332;19;130706;-33
2021/12/26 10:58:10;;;;;;;16.08;3.00;;;;;;;20.38;55.37;99040.75;7312366;19;130548;-39
2021/12/26 11:00:38;;;;;;;21.35;4.03;;;;;;;20.37;55.16;99036.50;7314339;19;129607;-32
2021/12/26 11:03:06;;;;;;;17.27;3.28;;;;;;;20.33;55.24;99043.78;7313616;19;129076;-35
2021/12/26 11:05:35;;;;;;;31.83;5.00;;;;;;;20.29;56.25;99039.03;7311332;19;130151;-35
2021/12/26 11:08:11;;;;;;;13.73;2.78;;;;;;;20.25;55.43;99048.09;7311303;19;130455;-34
2021/12/26 11:10:48;;;;;;;16.33;3.42;;;;;;;20.25;55.72;99040.25;7313654;19;129320;-31
2021/12/26 11:13:21;;;;;;;16.73;3.33;;;;;;;20.22;56.64;99041.38;7312763;19;129825;-34
2021/12/26 11:15:48;;;;;;;19.60;3.15;;;;;;;20.21;55.85;99044.16;7310626;19;129552;-30
2021/12/26 11:18:17;;;;;;;18.35;3.65;;;;;;;20.17;56.16;99027.13;7310488;19;130414;-34
2021/12/26 11:20:44;;;;;;;20.25;3.85;;;;;;;20.19;56.21;99041.69;7313012;19;129601;-33
2021/12/26 11:23:10;;;;;;;;;;;;;;;20.14;56.04;99024.75;7311682;19;154943;-38
2021/12/26 11:25:39;;;;;;;12.32;2.85;;;;;;;20.23;54.99;99039.59;7310167;19;130498;-35